Time;durP1;ratioP1;P1;durP2;ratioP2;P2;SDS_P1;SDS_P2;PMS_P1;PMS_P2;Temp;Humidity;BMP_temperature;BMP_pressure;BME280_temperature;BME280_humidity;BME280_pressure;Samples;Min_cycle;Max_cycle;Signal;HPM_P1;HPM_P2
2023/09/09 00:01:16;;;;;;;103.60;51.53;;;;;;;30.21;47.26;101692.50;5076052;28;20060;-77
2023/09/09 00:03:42;;;;;;;95.75;48.08;;;;;;;30.13;47.98;101694.97;5077445;28;20035;-76
2023/09/09 00:06:13;;;;;;;94.85;49.03;;;;;;;30.20;47.92;101700.69;5088436;28;20063;-75
2023/09/09 00:08:39;;;;;;;92.80;44.83;;;;;;;30.11;47.93;101697.75;5075988;28;20042;-75
2023/09/09 00:11:04;;;;;;;100.13;47.13;;;;;;;30.00;48.21;101694.22;5070249;28;20028;-77
2023/09/09 00:13:30;;;;;;;95.80;46.97;;;;;;;30.10;47.82;101695.19;5064975;28;20354;-77
2023/09/09 00:15:56;;;;;;;87.00;45.65;;;;;;;30.18;47.46;101692.72;5069583;28;20028;-76
2023/09/09 00:18:21;;;;;;;78.75;40.42;;;;;;;30.06;47.56;101691.00;5085922;28;20495;-74
2023/09/09 00:20:47;;;;;;;78.18;38.80;;;;;;;30.18;47.10;101702.66;5085564;28;20050;-74
2023/09/09 00:23:13;;;;;;;76.45;40.05;;;;;;;30.27;46.89;101696.53;5085079;28;20102;-75
2023/09/09 00:25:40;;;;;;;89.57;43.42;;;;;;;29.94;47.40;101696.41;5067206;28;20472;-74
2023/09/09 00:28:07;;;;;;;97.88;46.47;;;;;;;30.20;47.62;101684.50;5075558;28;20093;-77
2023/09/09 00:30:33;;;;;;;105.55;47.35;;;;;;;30.15;47.38;101692.97;5075839;28;20028;-77
2023/09/09 00:32:59;;;;;;;113.80;52.20;;;;;;;30.18;47.47;101690.03;5065356;28;20111;-76
2023/09/09 00:35:25;;;;;;;113.55;50.95;;;;;;;30.00;47.97;101694.22;5056015;28;20548;-75
2023/09/09 00:37:51;;;;;;;108.15;48.80;;;;;;;30.12;47.88;101690.53;5073716;28;20040;-75
2023/09/09 00:40:17;;;;;;;103.57;46.67;;;;;;;30.14;47.64;101688.56;5073512;28;20073;-75
2023/09/09 00:42:42;;;;;;;116.65;51.70;;;;;;;30.05;47.41;101684.78;5060230;28;20032;-75
2023/09/09 00:45:08;;;;;;;114.75;51.80;;;;;;;29.86;47.82;101685.38;5058675;28;20491;-75
2023/09/09 00:47:34;;;;;;;108.45;50.35;;;;;;;30.40;46.89;101682.91;5068339;28;20134;-75
2023/09/09 00:49:59;;;;;;;118.38;53.72;;;;;;;30.23;47.25;101690.53;5088178;28;20027;-75
2023/09/09 00:52:26;;;;;;;110.13;50.25;;;;;;;30.13;47.42;101686.88;5067292;28;20127;-76
2023/09/09 00:54:52;;;;;;;124.40;54.72;;;;;;;29.89;48.27;101682.44;5061608;28;20029;-76
2023/09/09 00:57:18;;;;;;;123.40;55.80;;;;;;;29.85;48.15;101680.97;5055387;28;20083;-76
2023/09/09 00:59:44;;;;;;;117.30;50.22;;;;;;;30.24;47.07;101676.06;5040666;28;20044;-76
2023/09/09 01:02:09;;;;;;;115.70;52.42;;;;;;;30.27;47.08;101680.38;5035429;28;20028;-76
2023/09/09 01:04:35;;;;;;;120.82;52.83;;;;;;;30.12;47.79;101677.06;5035719;28;20032;-76
2023/09/09 01:07:02;;;;;;;116.35;51.22;;;;;;;30.13;47.25;101673.41;5038983;28;20429;-76
2023/09/09 01:09:30;;;;;;;110.40;49.72;;;;;;;29.97;47.59;101667.53;5051832;28;20021;-76
2023/09/09 01:11:56;;;;;;;120.32;55.33;;;;;;;29.79;47.85;101676.88;5070707;28;20044;-76
2023/09/09 01:14:21;;;;;;;118.13;53.53;;;;;;;29.79;48.25;101681.44;5071716;28;20029;-76
2023/09/09 01:16:51;;;;;;;120.95;51.67;;;;;;;29.74;47.67;101679.06;5045257;28;20025;-75
2023/09/09 01:19:18;;;;;;;112.75;49.90;;;;;;;29.83;47.93;101671.25;5041400;28;20093;-75
2023/09/09 01:21:45;;;;;;;118.82;51.20;;;;;;;29.71;47.82;101667.69;5060669;28;20035;-75
2023/09/09 01:24:15;;;;;;;109.65;47.80;;;;;;;29.77;47.50;101677.97;5041876;28;20475;-75
2023/09/09 01:26:44;;;;;;;120.03;51.08;;;;;;;29.45;48.72;101673.28;5035103;28;20476;-76
2023/09/09 01:29:11;;;;;;;122.18;53.13;;;;;;;29.59;48.15;101669.50;5034689;28;20025;-75
2023/09/09 01:31:37;;;;;;;127.75;54.03;;;;;;;29.46;48.75;101666.91;5046765;28;20184;-77
2023/09/09 01:34:03;;;;;;;120.90;53.45;;;;;;;29.15;49.29;101677.31;5052545;28;20043;-75
2023/09/09 01:36:29;;;;;;;119.05;52.97;;;;;;;29.30;49.11;101674.47;5033528;28;20021;-75
2023/09/09 01:38:54;;;;;;;118.85;52.90;;;;;;;29.16;48.92;101673.66;5035138;28;20366;-75
2023/09/09 01:41:20;;;;;;;118.68;49.65;;;;;;;29.20;49.25;101680.50;5033741;28;20037;-75
2023/09/09 01:43:45;;;;;;;113.75;48.90;;;;;;;29.37;48.30;101675.69;5051714;28;20114;-75
2023/09/09 01:46:11;;;;;;;118.22;51.53;;;;;;;29.63;48.05;101670.13;5035647;28;20043;-77
2023/09/09 01:48:37;;;;;;;110.35;47.70;;;;;;;29.35;48.25;101665.06;5058800;28;20062;-76
2023/09/09 01:51:02;;;;;;;103.32;47.30;;;;;;;29.47;47.67;101665.97;5055965;28;20495;-76
2023/09/09 01:53:28;;;;;;;102.18;46.50;;;;;;;29.21;48.36;101660.69;5037276;28;20033;-76
2023/09/09 01:55:56;;;;;;;105.20;45.53;;;;;;;29.22;48.34;101667.81;5049801;28;20100;-76
2023/09/09 01:58:21;;;;;;;102.63;43.42;;;;;;;29.64;47.60;101663.78;5033510;28;20492;-75
2023/09/09 02:00:48;;;;;;;97.18;42.25;;;;;;;29.83;46.14;101672.13;5036511;28;20029;-76
2023/09/09 02:03:13;;;;;;;101.68;45.78;;;;;;;29.44;47.94;101666.16;5044055;28;20020;-75
2023/09/09 02:05:39;;;;;;;94.65;44.22;;;;;;;29.20;48.27;101674.28;5067392;28;20032;-75
2023/09/09 02:08:04;;;;;;;96.65;42.72;;;;;;;29.52;47.46;101674.50;5039337;28;20393;-76
2023/09/09 02:10:30;;;;;;;89.32;40.50;;;;;;;29.30;47.47;101677.16;5037156;28;20025;-75
2023/09/09 02:12:55;;;;;;;104.35;45.95;;;;;;;28.96;48.73;101671.59;5051283;28;20044;-76
2023/09/09 02:15:21;;;;;;;107.00;46.13;;;;;;;28.66;49.55;101670.22;5034184;28;20119;-76
2023/09/09 02:17:47;;;;;;;97.28;42.47;;;;;;;28.74;49.51;101667.81;5061682;28;20034;-75
2023/09/09 02:20:12;;;;;;;95.38;41.70;;;;;;;28.98;48.63;101669.66;5050541;28;20028;-76
2023/09/09 02:22:38;;;;;;;102.60;45.53;;;;;;;28.69;49.20;101681.63;5054085;28;20028;-76
2023/09/09 02:25:04;;;;;;;105.53;45.03;;;;;;;28.71;49.22;101678.81;5068024;28;20032;-75
2023/09/09 02:27:29;;;;;;;103.57;45.20;;;;;;;28.71;49.04;101673.44;5040449;28;20074;-75
2023/09/09 02:29:55;;;;;;;97.28;43.50;;;;;;;28.88;48.37;101681.13;5040380;28;20436;-75
2023/09/09 02:32:20;;;;;;;101.95;41.55;;;;;;;29.11;48.04;101675.81;5065979;28;20035;-75
2023/09/09 02:34:46;;;;;;;96.30;43.15;;;;;;;28.81;48.75;101662.84;5065694;28;20028;-75
2023/09/09 02:37:16;;;;;;;100.25;43.47;;;;;;;29.12;48.14;101661.41;5048175;28;20056;-74
2023/09/09 02:39:46;;;;;;;89.05;41.20;;;;;;;29.01;47.88;101658.66;5051001;28;20108;-75
2023/09/09 02:42:13;;;;;;;94.78;41.50;;;;;;;29.05;48.16;101657.47;5033625;28;20029;-75
2023/09/09 02:44:40;;;;;;;93.53;42.67;;;;;;;28.91;47.77;101659.34;5032783;28;20029;-75
2023/09/09 02:47:06;;;;;;;98.28;42.97;;;;;;;28.99;48.13;101649.84;5051094;28;20047;-75
2023/09/09 02:49:32;;;;;;;97.10;42.17;;;;;;;28.80;48.29;101653.94;5037995;28;20056;-75
2023/09/09 02:51:57;;;;;;;93.90;41.72;;;;;;;28.84;48.25;101649.16;5033516;28;20067;-75
2023/09/09 02:54:23;;;;;;;95.63;42.15;;;;;;;28.86;48.10;101648.06;5033578;28;20127;-74
2023/09/09 02:56:48;;;;;;;95.78;43.28;;;;;;;28.59;48.61;101653.63;5036646;28;20044;-75
2023/09/09 02:59:13;;;;;;;105.38;44.20;;;;;;;28.54;48.63;101651.31;5057750;28;20044;-74
2023/09/09 03:01:39;;;;;;;88.80;40.33;;;;;;;28.69;48.09;101649.34;5072143;28;20526;-75
2023/09/09 03:04:04;;;;;;;100.00;40.92;;;;;;;28.43;49.11;101648.56;5063504;28;20514;-76
2023/09/09 03:06:30;;;;;;;91.43;43.33;;;;;;;28.44;49.27;101653.81;5085695;28;20114;-76
2023/09/09 03:08:55;;;;;;;89.47;42.13;;;;;;;28.77;47.70;101641.56;5066283;28;20478;-76
2023/09/09 03:11:21;;;;;;;95.82;41.78;;;;;;;28.47;49.00;101651.84;5053205;28;20085;-76
2023/09/09 03:13:46;;;;;;;104.28;42.80;;;;;;;28.37;48.72;101655.25;5053243;28;20029;-75
2023/09/09 03:16:11;;;;;;;102.20;44.25;;;;;;;28.32;49.56;101651.16;5063872;28;20030;-76
2023/09/09 03:18:37;;;;;;;99.00;41.60;;;;;;;28.43;49.22;101645.88;5061649;28;20039;-76
2023/09/09 03:21:02;;;;;;;112.13;45.33;;;;;;;28.20;50.15;101653.75;5053577;28;20029;-76
2023/09/09 03:23:28;;;;;;;110.88;45.25;;;;;;;28.60;48.86;101650.88;5084060;28;20111;-76
2023/09/09 03:25:53;;;;;;;97.07;42.83;;;;;;;28.61;48.25;101649.03;5071211;28;20107;-75
2023/09/09 03:28:19;;;;;;;107.65;44.63;;;;;;;28.31;49.54;101644.06;5053640;28;20373;-76
2023/09/09 03:30:58;;;;;;;100.78;45.78;;;;;;;28.19;49.55;101654.75;5052188;28;20029;-76
2023/09/09 03:33:24;;;;;;;94.65;40.47;;;;;;;28.37;49.22;101654.34;5061180;28;20024;-76
2023/09/09 03:35:49;;;;;;;96.18;42.47;;;;;;;28.07;49.45;101658.31;5070953;28;20541;-76
2023/09/09 03:38:15;;;;;;;103.20;42.80;;;;;;;28.09;49.16;101648.31;5054392;28;20447;-76
2023/09/09 03:40:42;;;;;;;95.25;40.33;;;;;;;28.23;48.94;101650.88;5079727;28;20036;-76
2023/09/09 03:43:08;;;;;;;88.07;38.95;;;;;;;28.06;49.13;101645.84;5054422;28;20035;-75
2023/09/09 03:45:33;;;;;;;88.00;41.63;;;;;;;27.84;49.30;101650.00;5072974;28;20519;-75
2023/09/09 03:47:59;;;;;;;87.38;38.45;;;;;;;28.03;48.72;101659.50;5073334;28;20024;-75
2023/09/09 03:50:24;;;;;;;75.30;35.55;;;;;;;27.97;49.65;101646.47;5071103;28;20067;-76
2023/09/09 03:52:50;;;;;;;81.55;35.33;;;;;;;28.00;49.06;101657.00;5053726;28;20465;-76
2023/09/09 03:55:17;;;;;;;90.47;38.97;;;;;;;28.07;49.10;101659.16;5057722;28;20047;-75
2023/09/09 03:57:43;;;;;;;82.75;38.03;;;;;;;27.85;49.64;101659.78;5052464;28;20052;-76
2023/09/09 04:00:09;;;;;;;85.07;37.88;;;;;;;28.16;49.03;101667.53;5059127;28;20075;-76
2023/09/09 04:02:35;;;;;;;86.05;38.30;;;;;;;27.99;49.47;101666.03;5072844;28;20020;-75
2023/09/09 04:05:00;;;;;;;103.55;44.33;;;;;;;27.73;49.90;101666.88;5070805;28;20032;-76
2023/09/09 04:07:26;;;;;;;90.53;41.88;;;;;;;28.06;49.27;101667.34;5072428;28;20459;-75
2023/09/09 04:09:53;;;;;;;97.55;44.58;;;;;;;27.61;50.49;101673.09;5066635;28;20051;-76
2023/09/09 04:12:18;;;;;;;89.57;42.78;;;;;;;27.71;50.22;101674.19;5053333;28;20035;-75
2023/09/09 04:14:44;;;;;;;93.72;41.28;;;;;;;27.87;49.51;101673.97;5057599;28;20028;-76
2023/09/09 04:17:09;;;;;;;83.30;39.25;;;;;;;27.93;49.13;101670.84;5072305;28;20027;-76
2023/09/09 04:19:35;;;;;;;80.38;37.65;;;;;;;28.17;48.28;101674.63;5072776;28;20043;-75
2023/09/09 04:22:01;;;;;;;78.45;37.75;;;;;;;27.96;48.44;101674.28;5076451;28;20150;-76
2023/09/09 04:24:26;;;;;;;91.00;39.60;;;;;;;28.04;48.45;101672.81;5075832;28;20071;-76
2023/09/09 04:26:53;;;;;;;97.20;40.17;;;;;;;27.46;49.95;101672.31;5058247;28;20027;-76
2023/09/09 04:29:19;;;;;;;88.78;40.75;;;;;;;27.29;50.64;101669.94;5070911;28;20032;-75
2023/09/09 04:31:46;;;;;;;78.10;40.13;;;;;;;27.38;50.52;101661.25;5055724;28;20047;-76
2023/09/09 04:34:12;;;;;;;91.75;40.50;;;;;;;27.13;50.66;101668.25;5073630;28;20028;-76
2023/09/09 04:36:38;;;;;;;85.80;39.88;;;;;;;26.88;50.78;101669.88;5057666;28;20040;-76
2023/09/09 04:39:03;;;;;;;83.57;37.45;;;;;;;26.53;52.85;101674.84;5075627;28;20032;-75
2023/09/09 04:41:29;;;;;;;87.68;38.10;;;;;;;26.68;52.91;101678.34;5080170;28;20033;-76
2023/09/09 04:43:54;;;;;;;100.03;42.05;;;;;;;27.06;52.17;101677.69;5056056;28;20029;-76
2023/09/09 04:46:20;;;;;;;90.13;39.05;;;;;;;27.28;51.13;101676.25;5056868;28;20506;-76
2023/09/09 04:48:46;;;;;;;87.07;39.35;;;;;;;27.27;51.50;101680.72;5056907;28;20024;-76
2023/09/09 04:51:14;;;;;;;94.50;40.63;;;;;;;27.28;51.23;101681.63;5082380;28;20027;-76
2023/09/09 04:53:40;;;;;;;91.10;37.92;;;;;;;27.20;52.10;101680.31;5058871;28;20093;-76
2023/09/09 04:56:05;;;;;;;83.55;37.70;;;;;;;27.47;50.67;101682.09;5064945;28;20044;-76
2023/09/09 04:58:31;;;;;;;84.80;37.67;;;;;;;27.43;50.96;101683.28;5067890;28;20063;-76
2023/09/09 05:00:56;;;;;;;74.43;32.42;;;;;;;26.76;52.54;101692.16;5055596;28;20534;-76
2023/09/09 05:03:21;;;;;;;80.72;36.75;;;;;;;27.16;51.88;101688.66;5065817;28;20083;-76
2023/09/09 05:05:47;;;;;;;78.70;35.40;;;;;;;27.34;51.32;101686.56;5059080;28;20028;-76
2023/09/09 05:08:12;;;;;;;86.85;37.60;;;;;;;27.50;51.10;101689.94;5071787;28;20060;-76
2023/09/09 05:10:38;;;;;;;77.47;32.38;;;;;;;27.53;51.08;101687.06;5079368;28;20036;-77
2023/09/09 05:13:04;;;;;;;87.32;34.90;;;;;;;27.44;50.96;101695.75;5078464;28;20043;-76
2023/09/09 05:15:30;;;;;;;75.43;32.50;;;;;;;27.45;51.11;101686.75;5054454;28;20127;-77
2023/09/09 05:17:55;;;;;;;79.38;34.08;;;;;;;27.63;50.13;101681.03;5055300;28;20111;-76
2023/09/09 05:20:21;;;;;;;80.18;32.38;;;;;;;28.20;48.77;101691.38;5054937;28;20492;-77
2023/09/09 05:22:46;;;;;;;84.10;34.65;;;;;;;27.57;50.07;101683.22;5054243;28;20029;-76
2023/09/09 05:25:12;;;;;;;68.95;29.02;;;;;;;27.63;50.46;101686.41;5071846;28;20071;-76
2023/09/09 05:27:37;;;;;;;74.25;31.20;;;;;;;27.47;50.98;101690.16;5054963;28;20028;-75
2023/09/09 05:30:04;;;;;;;82.38;32.33;;;;;;;27.52;50.65;101696.09;5054329;28;20103;-76
2023/09/09 05:32:29;;;;;;;83.65;31.65;;;;;;;27.20;51.84;101700.91;5054491;28;20035;-76
2023/09/09 05:34:55;;;;;;;67.22;23.67;;;;;;;26.47;53.87;101697.53;5091516;28;20105;-76
2023/09/09 05:37:20;;;;;;;57.40;24.02;;;;;;;26.94;52.40;101690.06;5065491;28;21611;-76
2023/09/09 05:39:46;;;;;;;63.30;25.40;;;;;;;27.21;52.27;101687.38;5072242;28;20028;-76
2023/09/09 05:42:11;;;;;;;62.58;25.23;;;;;;;27.50;51.50;101694.47;5060844;28;20483;-76
2023/09/09 05:44:37;;;;;;;77.57;28.40;;;;;;;27.48;51.72;101699.94;5074638;28;20035;-76
2023/09/09 05:47:02;;;;;;;61.80;23.63;;;;;;;27.40;51.59;101702.28;5073214;28;20028;-76
2023/09/09 05:49:28;;;;;;;68.82;26.30;;;;;;;27.29;52.35;101700.28;5054093;28;20032;-76
2023/09/09 05:51:53;;;;;;;61.75;24.40;;;;;;;27.46;51.74;101701.00;5072161;28;20024;-76
2023/09/09 05:54:19;;;;;;;53.22;21.63;;;;;;;27.43;52.06;101704.75;5059518;28;20403;-76
2023/09/09 05:56:44;;;;;;;58.38;21.90;;;;;;;27.71;51.55;101705.53;5070935;28;20042;-76
2023/09/09 05:59:14;;;;;;;73.15;23.02;;;;;;;28.07;50.63;101706.69;5053632;28;20592;-76
2023/09/09 06:01:39;;;;;;;64.80;21.73;;;;;;;28.34;50.08;101705.66;5054590;28;20020;-76
2023/09/09 06:04:05;;;;;;;69.20;25.30;;;;;;;28.51;49.84;101704.44;5071487;28;20383;-76
2023/09/09 06:06:30;;;;;;;70.40;25.05;;;;;;;28.18;50.20;101712.13;5054401;28;20058;-76
2023/09/09 06:08:57;;;;;;;71.00;21.85;;;;;;;28.14;50.55;101707.06;5054256;28;20028;-76
2023/09/09 06:11:23;;;;;;;58.63;23.27;;;;;;;28.13;50.66;101716.97;5053523;28;20074;-76
2023/09/09 06:13:48;;;;;;;65.80;27.73;;;;;;;27.93;51.81;101721.91;5054295;28;20388;-76
2023/09/09 06:16:14;;;;;;;60.00;23.77;;;;;;;28.36;50.85;101723.41;5054070;28;20115;-76
2023/09/09 06:18:40;;;;;;;56.60;24.38;;;;;;;28.15;50.99;101725.81;5053341;28;20036;-76
2023/09/09 06:21:05;;;;;;;63.70;25.52;;;;;;;28.37;50.43;101724.25;5054383;28;20081;-77
2023/09/09 06:23:31;;;;;;;51.80;22.50;;;;;;;28.61;49.76;101722.47;5054311;28;20032;-77
2023/09/09 06:25:56;;;;;;;66.22;25.48;;;;;;;28.59;50.39;101721.75;5053777;28;20123;-77
2023/09/09 06:28:21;;;;;;;66.53;26.88;;;;;;;28.57;50.33;101726.34;5057560;28;20036;-77
2023/09/09 06:30:47;;;;;;;78.47;29.85;;;;;;;28.58;50.38;101722.69;5053762;28;20120;-78
2023/09/09 06:33:12;;;;;;;65.97;27.27;;;;;;;28.99;49.47;101725.19;5053689;28;20026;-77
2023/09/09 06:35:47;;;;;;;65.22;27.20;;;;;;;28.45;51.25;101729.94;5071700;28;20032;-77
2023/09/09 06:38:12;;;;;;;74.20;30.02;;;;;;;28.69;50.78;101731.88;5076427;28;20031;-77
2023/09/09 06:40:38;;;;;;;66.85;27.08;;;;;;;29.15;49.50;101735.66;5073080;28;20040;-77
2023/09/09 06:43:03;;;;;;;61.97;27.30;;;;;;;29.13;49.35;101738.47;5068977;28;20484;-77
2023/09/09 06:45:29;;;;;;;82.07;30.88;;;;;;;29.18;49.33;101741.69;5052756;28;20025;-77
2023/09/09 06:47:54;;;;;;;76.93;30.25;;;;;;;29.34;49.57;101740.56;5071652;28;20043;-77
2023/09/09 06:50:19;;;;;;;57.33;26.25;;;;;;;29.73;48.08;101741.16;5057973;28;20023;-77
2023/09/09 06:52:45;;;;;;;60.55;26.92;;;;;;;29.90;47.54;101748.81;5089658;28;20507;-77
2023/09/09 06:55:13;;;;;;;57.05;25.88;;;;;;;28.83;49.97;101742.47;5091853;28;20106;-77
2023/09/09 06:57:38;;;;;;;50.15;25.85;;;;;;;29.56;48.08;101743.31;5073905;28;20487;-77
2023/09/09 07:00:05;;;;;;;53.65;25.10;;;;;;;29.39;48.14;101744.59;5057107;28;20091;-77
2023/09/09 07:02:32;;;;;;;48.03;22.95;;;;;;;29.50;47.67;101746.50;5037490;28;20048;-76
2023/09/09 07:04:57;;;;;;;43.95;22.63;;;;;;;29.89;46.87;101755.19;5053810;28;20038;-77
2023/09/09 07:07:23;;;;;;;49.95;25.33;;;;;;;30.10;46.58;101760.75;5052738;28;20032;-77
2023/09/09 07:09:48;;;;;;;49.42;24.58;;;;;;;30.04;46.24;101755.81;5068505;28;20521;-77
2023/09/09 07:12:13;;;;;;;54.08;26.33;;;;;;;29.49;48.50;101760.91;5091367;28;20028;-77
2023/09/09 07:14:39;;;;;;;54.20;28.02;;;;;;;28.92;49.96;101752.56;5073444;28;20101;-77
2023/09/09 07:17:04;;;;;;;59.55;26.67;;;;;;;29.15;50.52;101755.34;5073614;28;20034;-77
2023/09/09 07:19:30;;;;;;;56.10;26.70;;;;;;;29.36;49.64;101746.66;5061847;28;20036;-77
2023/09/09 07:21:55;;;;;;;60.83;29.42;;;;;;;29.28;49.90;101742.72;5071668;28;20039;-77
2023/09/09 07:24:21;;;;;;;72.13;32.50;;;;;;;29.77;49.08;101753.41;5073318;28;20039;-76
2023/09/09 07:26:46;;;;;;;71.38;33.28;;;;;;;30.23;48.57;101760.63;5074089;28;20071;-77
2023/09/09 07:29:12;;;;;;;72.68;35.05;;;;;;;30.61;47.85;101762.13;5070487;28;20525;-72
2023/09/09 07:31:38;;;;;;;69.90;32.75;;;;;;;31.08;46.47;101755.69;5071946;28;20110;-73
2023/09/09 07:34:03;;;;;;;70.30;34.47;;;;;;;33.28;43.46;101757.25;5076785;28;20362;-73
2023/09/09 07:36:28;;;;;;;68.78;32.60;;;;;;;32.64;42.97;101762.09;5050766;28;20028;-72
2023/09/09 07:38:54;;;;;;;63.85;34.15;;;;;;;32.73;42.93;101759.59;5051305;28;20016;-73
2023/09/09 07:41:19;;;;;;;68.30;33.35;;;;;;;33.87;41.45;101753.63;5068670;28;20433;-72
2023/09/09 07:43:45;;;;;;;67.28;34.95;;;;;;;34.19;40.60;101750.53;5069170;28;20028;-72
2023/09/09 07:46:14;;;;;;;62.72;32.78;;;;;;;34.37;39.10;101760.66;5068643;28;20039;-72
2023/09/09 07:48:40;;;;;;;65.10;35.78;;;;;;;35.56;38.48;101757.84;5073846;28;20055;-73
2023/09/09 07:51:05;;;;;;;64.05;34.78;;;;;;;36.16;37.19;101764.38;5088459;28;20028;-73
2023/09/09 07:53:31;;;;;;;62.25;34.72;;;;;;;36.10;35.98;101765.03;5072456;28;20028;-70
2023/09/09 07:55:57;;;;;;;54.60;31.75;;;;;;;35.53;36.68;101763.63;5073025;28;20112;-73
2023/09/09 07:58:22;;;;;;;54.17;29.45;;;;;;;36.82;35.80;101770.13;5089678;28;20489;-73
2023/09/09 08:00:57;;;;;;;43.28;25.40;;;;;;;37.59;33.24;101769.91;5055255;28;20032;-70
2023/09/09 08:03:23;;;;;;;45.50;25.83;;;;;;;37.76;33.25;101772.63;5072232;28;20472;-70
2023/09/09 08:05:53;;;;;;;46.17;27.05;;;;;;;37.84;33.08;101764.44;5052911;28;20025;-71
2023/09/09 08:08:18;;;;;;;38.85;25.02;;;;;;;36.54;35.87;101773.09;5072750;28;20024;-70
2023/09/09 08:10:44;;;;;;;41.47;23.33;;;;;;;36.61;36.32;101765.09;5072405;28;20019;-71
2023/09/09 08:13:09;;;;;;;34.92;21.60;;;;;;;36.81;33.09;101763.00;5055071;28;20492;-71
2023/09/09 08:15:35;;;;;;;37.58;21.15;;;;;;;36.76;33.88;101770.78;5045883;28;20032;-71
2023/09/09 08:18:00;;;;;;;33.13;19.33;;;;;;;36.44;35.05;101761.50;5052230;28;20035;-71
2023/09/09 08:20:26;;;;;;;30.67;19.05;;;;;;;35.99;35.42;101767.00;5034600;28;20116;-71
2023/09/09 08:22:51;;;;;;;28.13;17.15;;;;;;;36.14;33.67;101766.41;5052663;28;20477;-71
2023/09/09 08:25:17;;;;;;;33.75;20.95;;;;;;;35.54;35.67;101776.16;5037783;28;20032;-71
2023/09/09 08:27:42;;;;;;;39.03;18.63;;;;;;;35.86;34.63;101769.31;5054820;28;20020;-71
2023/09/09 08:30:08;;;;;;;29.00;18.65;;;;;;;35.91;34.00;101777.00;5054576;28;20028;-71
2023/09/09 08:32:34;;;;;;;29.52;17.08;;;;;;;36.22;33.20;101774.63;5071505;28;20119;-70
2023/09/09 08:35:00;;;;;;;29.02;17.40;;;;;;;36.09;32.71;101780.47;5053201;28;20028;-71
2023/09/09 08:37:25;;;;;;;24.65;15.07;;;;;;;36.09;33.28;101779.63;5072067;28;20391;-71
2023/09/09 08:39:54;;;;;;;17.88;11.18;;;;;;;36.47;31.43;101777.47;5052936;28;20071;-71
2023/09/09 08:42:41;;;;;;;24.20;12.55;;;;;;;35.73;31.35;101786.00;5053870;28;20051;-71
2023/09/09 08:45:47;;;;;;;20.35;12.57;;;;;;;37.12;30.61;101778.69;5051639;28;21129;-71
2023/09/09 08:48:18;;;;;;;20.15;12.60;;;;;;;35.29;32.34;101789.50;5042491;28;20132;-71
2023/09/09 08:50:47;;;;;;;18.65;12.13;;;;;;;35.62;33.96;101789.81;5034314;28;20025;-71
2023/09/09 08:53:13;;;;;;;18.83;11.30;;;;;;;36.08;32.52;101794.25;5033455;28;20021;-71
2023/09/09 08:55:40;;;;;;;20.08;12.27;;;;;;;37.12;31.32;101792.31;5034382;28;20378;-71
2023/09/09 08:58:06;;;;;;;22.25;12.48;;;;;;;36.88;30.89;101796.72;5034288;28;20029;-71
2023/09/09 09:00:36;;;;;;;24.70;14.10;;;;;;;37.26;31.71;101798.97;5054345;28;20578;-70
2023/09/09 09:03:02;;;;;;;26.70;16.70;;;;;;;36.45;33.61;101795.84;5054300;28;20082;-71
2023/09/09 09:05:32;;;;;;;28.13;17.05;;;;;;;37.13;33.39;101805.78;5046153;28;20058;-71
2023/09/09 09:08:01;;;;;;;29.02;16.67;;;;;;;36.28;34.69;101798.44;5033546;28;20021;-70
2023/09/09 09:10:26;;;;;;;29.80;17.90;;;;;;;35.90;35.42;101802.47;5067319;28;20028;-71
2023/09/09 09:12:52;;;;;;;28.17;17.85;;;;;;;36.70;34.64;101804.09;5053808;28;20027;-71
2023/09/09 09:15:20;;;;;;;28.67;17.52;;;;;;;36.57;33.49;101810.84;5046655;28;20029;-71
2023/09/09 09:17:46;;;;;;;29.02;15.90;;;;;;;36.68;34.13;101802.41;5036582;28;20028;-71
2023/09/09 09:20:33;;;;;;;27.33;16.58;;;;;;;36.60;34.77;101807.81;5032780;28;20043;-71
2023/09/09 09:23:06;;;;;;;23.95;15.60;;;;;;;35.86;35.77;101812.81;5047202;28;20036;-71
2023/09/09 09:25:37;;;;;;;32.38;16.98;;;;;;;36.51;34.63;101803.34;5052491;28;20521;-69
2023/09/09 09:28:03;;;;;;;27.77;16.65;;;;;;;35.76;36.20;101806.59;5053022;28;20027;-71
2023/09/09 09:30:31;;;;;;;24.95;15.60;;;;;;;35.99;34.78;101807.78;5053332;28;20028;-71
2023/09/09 09:32:56;;;;;;;21.38;13.05;;;;;;;36.45;34.60;101795.84;5041823;28;20037;-71
2023/09/09 09:35:26;;;;;;;26.83;13.85;;;;;;;35.89;33.93;101798.03;5053194;28;20074;-70
2023/09/09 09:38:00;;;;;;;19.98;13.25;;;;;;;36.48;33.36;101807.25;5033339;28;20036;-71
2023/09/09 09:40:27;;;;;;;18.33;11.45;;;;;;;37.90;31.34;101807.38;5051125;28;20450;-71
2023/09/09 09:42:53;;;;;;;17.25;10.63;;;;;;;38.34;31.51;101817.84;5032744;28;20135;-69
2023/09/09 09:45:27;;;;;;;18.88;10.10;;;;;;;37.98;30.50;101803.78;5032700;28;20397;-71
2023/09/09 09:47:54;;;;;;;15.23;9.85;;;;;;;37.12;32.13;101814.13;5035684;28;20479;-70
2023/09/09 09:50:30;;;;;;;12.90;7.97;;;;;;;38.69;29.74;101810.25;5050187;28;20048;-71
2023/09/09 09:53:06;;;;;;;15.15;8.57;;;;;;;36.82;30.94;101809.13;5033264;28;20025;-71
2023/09/09 09:55:34;;;;;;;13.27;8.68;;;;;;;36.74;31.73;101810.91;5031821;28;20029;-71
2023/09/09 09:58:07;;;;;;;16.48;9.82;;;;;;;37.61;30.64;101808.72;5038256;28;20085;-71
2023/09/09 10:00:33;;;;;;;14.40;9.05;;;;;;;36.71;31.44;101812.09;5036682;28;20033;-71
2023/09/09 10:03:01;;;;;;;15.82;7.63;;;;;;;37.58;31.04;101809.09;5042874;28;20064;-71
2023/09/09 10:05:33;;;;;;;13.00;9.05;;;;;;;36.10;32.37;101803.13;5070906;28;20099;-71
2023/09/09 10:08:19;;;;;;;13.47;8.87;;;;;;;37.25;30.77;101802.72;5070930;28;20033;-71
2023/09/09 10:11:13;;;;;;;12.40;7.20;;;;;;;36.75;31.42;101807.19;5051678;28;20282;-70
2023/09/09 10:14:00;;;;;;;12.55;7.40;;;;;;;36.73;31.90;101798.34;5033048;28;20068;-71
2023/09/09 10:16:28;;;;;;;13.73;8.45;;;;;;;36.49;31.71;101797.22;5031452;28;20056;-71
2023/09/09 10:18:55;;;;;;;15.15;9.88;;;;;;;37.13;30.89;101800.31;5032593;28;20508;-71
2023/09/09 10:21:21;;;;;;;13.07;8.50;;;;;;;37.60;30.44;101789.81;5052014;28;20504;-71
2023/09/09 10:23:48;;;;;;;12.23;7.32;;;;;;;37.82;30.71;101799.19;5038964;28;20036;-71
2023/09/09 10:26:16;;;;;;;14.27;9.02;;;;;;;37.68;31.61;101801.56;5046345;28;20025;-71
2023/09/09 10:28:43;;;;;;;13.15;8.27;;;;;;;37.72;30.84;101798.50;5039890;28;20021;-71
2023/09/09 10:31:12;;;;;;;14.07;8.60;;;;;;;37.92;29.86;101794.44;5031640;28;20056;-71
2023/09/09 10:33:41;;;;;;;21.20;9.88;;;;;;;37.34;30.12;101799.88;5041298;28;20442;-71
2023/09/09 10:36:08;;;;;;;15.13;9.70;;;;;;;37.64;30.85;101796.63;5052443;28;20020;-71
2023/09/09 10:38:33;;;;;;;12.77;7.85;;;;;;;37.88;30.78;101792.19;5069175;28;20128;-71
2023/09/09 10:41:00;;;;;;;12.50;8.30;;;;;;;37.27;31.54;101798.81;5069315;28;20052;-71
2023/09/09 10:43:25;;;;;;;14.40;7.60;;;;;;;37.42;31.26;101793.56;5036359;28;20066;-71
2023/09/09 10:45:51;;;;;;;18.20;9.48;;;;;;;37.11;31.17;101793.34;5051978;28;20500;-71
2023/09/09 10:48:21;;;;;;;12.95;8.63;;;;;;;37.34;31.00;101797.16;5051669;28;20035;-71
2023/09/09 10:50:51;;;;;;;12.13;7.28;;;;;;;38.06;30.67;101797.44;5052209;28;20108;-71
2023/09/09 10:53:17;;;;;;;16.38;8.57;;;;;;;38.01;30.72;101790.63;5049664;28;20123;-71
2023/09/09 10:55:43;;;;;;;11.02;7.50;;;;;;;37.95;30.41;101788.63;5036397;28;20041;-71
2023/09/09 10:58:09;;;;;;;14.52;8.13;;;;;;;37.72;30.98;101793.06;5067599;28;20033;-71
2023/09/09 11:00:40;;;;;;;14.75;9.10;;;;;;;36.53;31.27;101798.59;5068702;28;20442;-71
2023/09/09 11:03:14;;;;;;;12.68;8.20;;;;;;;37.33;30.57;101795.44;5063780;28;20484;-70
2023/09/09 11:05:59;;;;;;;13.02;7.85;;;;;;;37.02;31.77;101792.47;5031531;28;20121;-70
2023/09/09 11:08:35;;;;;;;14.90;9.43;;;;;;;37.07;31.27;101790.13;5032370;28;20047;-71